Time;durP1;ratioP1;P1;durP2;ratioP2;P2;SDS_P1;SDS_P2;PMS_P1;PMS_P2;Temp;Humidity;BMP_temperature;BMP_pressure;BME280_temperature;BME280_humidity;BME280_pressure;Samples;Min_cycle;Max_cycle;Signal;HPM_P1;HPM_P2
2024/01/12 00:00:49;;;;;;;38.73;19.90;;;;;;;;;;5050741;28;20206;-27
2024/01/12 00:05:50;;;;;;;34.07;18.27;;;;;;;;;;5060249;28;20642;-30
2024/01/12 00:08:22;;;;;;;33.17;17.90;;;;;;;;;;5071172;28;20734;-29
2024/01/12 00:10:53;;;;;;;33.20;17.37;;;;;;;;;;5062818;28;20213;-26
2024/01/12 00:13:22;;;;;;;31.80;17.60;;;;;;;;;;5061564;28;20217;-28
2024/01/12 00:15:53;;;;;;;32.37;18.07;;;;;;;;;;5061920;28;20226;-26
2024/01/12 00:18:22;;;;;;;29.97;16.87;;;;;;;;;;5055963;28;20197;-28
2024/01/12 00:20:59;;;;;;;33.07;18.13;;;;;;;;;;5057196;28;20217;-28
2024/01/12 00:23:29;;;;;;;30.83;18.03;;;;;;;;;;5066066;28;20547;-28
2024/01/12 00:26:00;;;;;;;37.17;19.80;;;;;;;;;;5072625;28;20221;-27
2024/01/12 00:28:32;;;;;;;36.60;18.53;;;;;;;;;;5053992;28;20210;-28
2024/01/12 00:31:09;;;;;;;34.70;17.43;;;;;;;;;;5061910;28;20215;-28
2024/01/12 00:33:47;;;;;;;31.20;17.60;;;;;;;;;;5067003;28;20201;-29
2024/01/12 00:36:20;;;;;;;36.60;17.10;;;;;;;;;;5057626;28;20715;-28
2024/01/12 00:38:50;;;;;;;35.20;17.77;;;;;;;;;;5053716;28;20210;-27
2024/01/12 00:41:19;;;;;;;31.93;16.77;;;;;;;;;;5070309;28;20201;-27
2024/01/12 00:43:51;;;;;;;34.17;17.17;;;;;;;;;;5055175;28;20202;-29
2024/01/12 00:46:30;;;;;;;34.63;18.53;;;;;;;;;;5069977;28;20218;-30
2024/01/12 00:48:59;;;;;;;34.67;18.97;;;;;;;;;;5454510;22;20245;-27
2024/01/12 00:51:48;;;;;;;32.33;17.53;;;;;;;;;;5064326;28;20208;-27
2024/01/12 00:54:22;;;;;;;28.10;16.73;;;;;;;;;;5053696;28;20332;-27
2024/01/12 00:57:04;;;;;;;33.87;17.87;;;;;;;;;;5066968;28;20254;-24
2024/01/12 00:59:39;;;;;;;34.47;17.93;;;;;;;;;;5056246;28;20256;-28
2024/01/12 01:02:13;;;;;;;34.17;19.10;;;;;;;;;;5062115;28;20205;-28
2024/01/12 01:04:49;;;;;;;36.47;19.43;;;;;;;;;;5051418;28;20244;-28
2024/01/12 01:07:28;;;;;;;33.30;19.10;;;;;;;;;;5071425;28;20324;-27
2024/01/12 01:10:10;;;;;;;36.10;19.87;;;;;;;;;;5056373;28;20639;-26
2024/01/12 01:12:44;;;;;;;40.63;19.87;;;;;;;;;;5050987;28;20290;-29
2024/01/12 01:17:59;;;;;;;32.23;17.83;;;;;;;;;;5058307;22;20240;-35
2024/01/12 01:20:29;;;;;;;31.63;16.70;;;;;;;;;;5038981;28;20293;-35
2024/01/12 01:23:06;;;;;;;36.13;17.10;;;;;;;;;;5052480;28;20206;-32
2024/01/12 01:25:45;;;;;;;36.20;19.10;;;;;;;;;;5039006;28;20238;-36
2024/01/12 01:28:17;;;;;;;33.47;17.33;;;;;;;;;;5032102;28;20234;-33
2024/01/12 01:30:49;;;;;;;31.67;18.10;;;;;;;;;;5023437;28;20641;-34
2024/01/12 01:33:26;;;;;;;32.13;17.50;;;;;;;;;;5030061;28;20202;-32
2024/01/12 01:36:02;;;;;;;28.70;16.43;;;;;;;;;;5029642;28;20726;-34
2024/01/12 01:38:37;;;;;;;32.13;18.23;;;;;;;;;;5025063;28;20202;-33
2024/01/12 01:41:20;;;;;;;33.07;16.80;;;;;;;;;;5032677;28;20580;-34
2024/01/12 01:43:51;;;;;;;31.70;17.17;;;;;;;;;;5024908;28;20207;-33
2024/01/12 01:46:23;;;;;;;30.80;16.83;;;;;;;;;;5030054;28;20253;-33
2024/01/12 01:48:53;;;;;;;33.83;17.43;;;;;;;;;;5030935;28;20202;-34
2024/01/12 01:51:28;;;;;;;37.13;17.47;;;;;;;;;;5026456;28;20305;-33
2024/01/12 01:54:02;;;;;;;30.73;17.60;;;;;;;;;;5032478;28;20297;-34
2024/01/12 01:56:33;;;;;;;29.90;16.70;;;;;;;;;;5023176;28;20209;-38
2024/01/12 01:59:03;;;;;;;31.97;17.10;;;;;;;;;;5026676;28;20214;-38
2024/01/12 02:01:48;;;;;;;33.70;17.30;;;;;;;;;;5017781;28;20294;-32
2024/01/12 02:04:25;;;;;;;30.20;16.70;;;;;;;;;;5026733;28;20341;-34
2024/01/12 02:07:04;;;;;;;37.03;19.17;;;;;;;;;;5031527;28;20492;-32
2024/01/12 02:09:34;;;;;;;30.40;16.40;;;;;;;;;;5036819;28;20214;-33
2024/01/12 02:12:18;;;;;;;34.03;19.23;;;;;;;;;;5036570;28;20293;-34
2024/01/12 02:15:01;;;;;;;32.80;16.90;;;;;;;;;;5032312;28;20230;-36
2024/01/12 02:20:10;;;;;;;37.40;19.67;;;;;;;;;;5154473;22;20233;-28
2024/01/12 02:25:27;;;;;;;30.53;16.97;;;;;;;;;;5342813;22;20653;-33
2024/01/12 02:28:08;;;;;;;31.13;17.77;;;;;;;;;;5046290;28;20213;-35
2024/01/12 02:36:02;;;;;;;35.70;18.40;;;;;;;;;;5019488;28;20226;-26
2024/01/12 02:41:16;;;;;;;32.60;16.27;;;;;;;;;;5619813;22;20239;-33
2024/01/12 02:43:49;;;;;;;36.73;17.50;;;;;;;;;;5058711;28;20209;-36
2024/01/12 02:46:26;;;;;;;36.10;17.93;;;;;;;;;;5040760;28;20254;-35
2024/01/12 02:49:02;;;;;;;32.20;16.27;;;;;;;;;;5047448;28;20209;-32
2024/01/12 02:51:36;;;;;;;33.67;17.20;;;;;;;;;;5047128;28;20216;-34
2024/01/12 02:54:13;;;;;;;36.13;17.33;;;;;;;;;;5047272;28;20216;-33
2024/01/12 02:56:49;;;;;;;33.30;17.03;;;;;;;;;;5041075;28;20206;-34
2024/01/12 02:59:22;;;;;;;34.07;17.07;;;;;;;;;;5044898;28;20214;-34
2024/01/12 03:01:56;;;;;;;36.23;18.37;;;;;;;;;;5050118;28;20209;-37
2024/01/12 03:04:27;;;;;;;32.33;16.77;;;;;;;;;;5042964;28;20233;-36
2024/01/12 03:07:07;;;;;;;37.07;17.27;;;;;;;;;;5035160;28;20231;-37
2024/01/12 03:09:43;;;;;;;35.43;17.70;;;;;;;;;;5039557;28;20258;-32
2024/01/12 03:12:17;;;;;;;32.47;16.03;;;;;;;;;;5052229;28;20305;-33
2024/01/12 03:14:48;;;;;;;31.53;16.57;;;;;;;;;;5041997;28;20233;-31
2024/01/12 03:17:24;;;;;;;34.80;18.10;;;;;;;;;;5043122;28;20209;-33
2024/01/12 03:19:55;;;;;;;38.67;18.63;;;;;;;;;;5046982;28;20240;-35
2024/01/12 03:22:36;;;;;;;35.80;17.13;;;;;;;;;;5044598;28;20210;-33
2024/01/12 03:25:08;;;;;;;33.07;17.53;;;;;;;;;;5047078;28;20299;-33
2024/01/12 03:27:44;;;;;;;38.97;17.67;;;;;;;;;;5042469;28;20206;-33
2024/01/12 03:30:22;;;;;;;33.57;18.73;;;;;;;;;;5042975;28;20558;-36
2024/01/12 03:32:56;;;;;;;34.00;17.07;;;;;;;;;;5034189;28;20210;-35
2024/01/12 03:35:33;;;;;;;34.97;19.13;;;;;;;;;;5049884;28;20233;-34
2024/01/12 03:38:14;;;;;;;35.77;18.00;;;;;;;;;;5034911;28;20630;-35
2024/01/12 03:40:46;;;;;;;34.67;16.33;;;;;;;;;;5039543;28;20210;-31
2024/01/12 03:43:21;;;;;;;30.27;16.37;;;;;;;;;;5045941;28;20219;-33
2024/01/12 03:45:53;;;;;;;32.33;17.77;;;;;;;;;;5045132;28;20260;-30
2024/01/12 03:48:29;;;;;;;33.50;17.47;;;;;;;;;;5043541;28;20297;-34
2024/01/12 03:54:20;;;;;;;32.30;17.60;;;;;;;;;;5454232;22;20252;-28
2024/01/12 03:56:57;;;;;;;33.40;17.13;;;;;;;;;;5060598;28;20197;-27
2024/01/12 03:59:32;;;;;;;28.47;16.23;;;;;;;;;;5066255;28;20201;-26
2024/01/12 04:02:04;;;;;;;39.30;18.83;;;;;;;;;;5069871;28;20292;-28
2024/01/12 04:04:36;;;;;;;35.57;17.30;;;;;;;;;;5308003;22;20233;-34
2024/01/12 04:07:13;;;;;;;34.47;19.07;;;;;;;;;;5061463;28;20636;-32
2024/01/12 04:09:50;;;;;;;35.23;17.13;;;;;;;;;;5058141;28;20220;-33
2024/01/12 04:12:26;;;;;;;32.53;17.20;;;;;;;;;;5065492;28;20412;-35
2024/01/12 04:15:00;;;;;;;31.57;17.10;;;;;;;;;;5057916;28;20225;-32
2024/01/12 04:17:30;;;;;;;33.63;17.60;;;;;;;;;;5046368;28;20302;-32
2024/01/12 04:20:04;;;;;;;32.63;16.67;;;;;;;;;;5049824;28;20244;-33
2024/01/12 04:22:37;;;;;;;29.13;16.50;;;;;;;;;;5047176;28;20439;-32
2024/01/12 04:25:11;;;;;;;34.23;16.30;;;;;;;;;;5037881;28;20235;-36
2024/01/12 04:27:44;;;;;;;35.33;18.00;;;;;;;;;;5034794;28;20550;-35
2024/01/12 04:30:20;;;;;;;35.80;17.63;;;;;;;;;;5045898;28;20220;-32
2024/01/12 04:32:57;;;;;;;33.67;16.73;;;;;;;;;;5038087;28;20651;-32
2024/01/12 04:35:31;;;;;;;26.13;15.37;;;;;;;;;;5042206;28;20315;-34
2024/01/12 04:38:10;;;;;;;33.70;15.40;;;;;;;;;;5046746;28;20216;-35
2024/01/12 04:40:43;;;;;;;31.90;15.10;;;;;;;;;;5041661;28;20294;-35
2024/01/12 04:43:15;;;;;;;37.33;17.27;;;;;;;;;;5044719;28;20267;-33
2024/01/12 04:46:00;;;;;;;34.00;16.63;;;;;;;;;;5044008;28;20246;-33
2024/01/12 04:51:10;;;;;;;34.80;17.30;;;;;;;;;;5852026;22;20269;-33
2024/01/12 04:53:41;;;;;;;29.33;15.77;;;;;;;;;;5052926;28;20206;-34
2024/01/12 04:56:22;;;;;;;30.80;16.40;;;;;;;;;;5052929;28;20287;-32
2024/01/12 04:59:00;;;;;;;30.00;16.00;;;;;;;;;;5036612;28;20214;-31
2024/01/12 05:01:40;;;;;;;28.67;16.20;;;;;;;;;;5035645;28;20221;-34
2024/01/12 05:04:12;;;;;;;34.70;17.67;;;;;;;;;;5043060;28;20213;-33
2024/01/12 05:06:49;;;;;;;30.17;16.20;;;;;;;;;;5037919;28;20287;-36
2024/01/12 05:09:22;;;;;;;38.13;17.50;;;;;;;;;;5035784;28;20276;-30
2024/01/12 05:11:57;;;;;;;34.43;17.53;;;;;;;;;;5921486;22;20205;-33
2024/01/12 05:14:31;;;;;;;31.93;16.53;;;;;;;;;;5062950;28;20225;-35
2024/01/12 05:17:10;;;;;;;30.97;14.50;;;;;;;;;;5062515;28;20205;-33
2024/01/12 05:19:45;;;;;;;32.60;14.87;;;;;;;;;;5059664;28;20205;-32
2024/01/12 05:22:19;;;;;;;31.60;14.77;;;;;;;;;;5053874;28;20213;-35
2024/01/12 05:25:02;;;;;;;30.57;15.43;;;;;;;;;;5060787;28;20257;-32
2024/01/12 05:27:31;;;;;;;33.03;16.67;;;;;;;;;;5065849;28;20279;-34
2024/01/12 05:30:06;;;;;;;29.30;16.20;;;;;;;;;;5052890;28;20218;-32
2024/01/12 05:32:37;;;;;;;34.20;17.27;;;;;;;;;;5054730;28;20677;-34
2024/01/12 05:35:10;;;;;;;31.50;17.13;;;;;;;;;;5063372;28;20235;-34
2024/01/12 05:37:44;;;;;;;33.20;17.07;;;;;;;;;;5071192;28;20279;-32
2024/01/12 05:40:18;;;;;;;37.17;17.37;;;;;;;;;;5056859;28;20237;-33
2024/01/12 05:42:48;;;;;;;29.70;16.60;;;;;;;;;;5051778;28;20221;-34
2024/01/12 05:45:24;;;;;;;39.47;17.53;;;;;;;;;;5052656;28;20233;-32
2024/01/12 05:47:54;;;;;;;30.87;16.47;;;;;;;;;;5063008;28;20201;-31
2024/01/12 05:50:24;;;;;;;28.33;15.73;;;;;;;;;;5054498;28;20473;-35
2024/01/12 05:52:58;;;;;;;33.87;17.53;;;;;;;;;;5060649;28;20279;-34
2024/01/12 05:55:32;;;;;;;28.93;15.97;;;;;;;;;;5055879;28;20217;-33
2024/01/12 05:58:05;;;;;;;33.73;18.40;;;;;;;;;;5064192;28;20218;-31
2024/01/12 06:00:37;;;;;;;33.73;16.57;;;;;;;;;;5069340;28;20221;-33
2024/01/12 06:03:07;;;;;;;31.80;16.20;;;;;;;;;;5065483;28;20217;-32
2024/01/12 06:05:45;;;;;;;35.77;17.63;;;;;;;;;;5066358;28;20220;-33
2024/01/12 06:08:21;;;;;;;30.83;17.13;;;;;;;;;;5066218;28;20236;-39
2024/01/12 06:10:54;;;;;;;31.20;16.97;;;;;;;;;;5060127;28;20251;-38
2024/01/12 06:13:30;;;;;;;37.37;16.73;;;;;;;;;;5058942;28;20209;-38
2024/01/12 06:16:05;;;;;;;32.63;16.77;;;;;;;;;;5053813;28;20279;-37
2024/01/12 06:18:36;;;;;;;36.20;16.17;;;;;;;;;;5059247;28;20218;-35
2024/01/12 06:21:07;;;;;;;28.53;15.60;;;;;;;;;;5052617;28;20541;-36
2024/01/12 06:23:47;;;;;;;23.77;14.87;;;;;;;;;;5059728;28;20233;-36
2024/01/12 06:26:16;;;;;;;31.37;14.47;;;;;;;;;;5066655;28;20282;-35
2024/01/12 06:28:53;;;;;;;25.97;15.00;;;;;;;;;;5057828;28;20332;-33
2024/01/12 06:31:23;;;;;;;38.93;18.33;;;;;;;;;;5068851;28;20276;-37
2024/01/12 06:33:53;;;;;;;32.43;15.70;;;;;;;;;;5049961;28;20224;-32
2024/01/12 06:36:25;;;;;;;34.30;17.83;;;;;;;;;;5055065;28;20292;-36
2024/01/12 06:39:03;;;;;;;32.67;17.50;;;;;;;;;;5056599;28;20243;-35
2024/01/12 06:41:37;;;;;;;31.40;16.33;;;;;;;;;;5060149;28;20213;-36
2024/01/12 06:44:19;;;;;;;32.97;16.70;;;;;;;;;;5057713;28;20206;-35
2024/01/12 06:46:49;;;;;;;28.90;16.73;;;;;;;;;;5056192;28;20312;-36
2024/01/12 06:49:23;;;;;;;34.13;17.80;;;;;;;;;;5055443;28;20247;-32
2024/01/12 06:51:58;;;;;;;35.03;16.87;;;;;;;;;;5061848;28;20197;-33
2024/01/12 06:54:34;;;;;;;29.50;16.20;;;;;;;;;;5063898;28;20232;-37
2024/01/12 06:57:17;;;;;;;34.40;17.90;;;;;;;;;;5064932;28;20217;-36
2024/01/12 06:59:48;;;;;;;32.07;17.10;;;;;;;;;;5059017;28;20301;-33
2024/01/12 07:02:21;;;;;;;34.40;18.37;;;;;;;;;;5056320;28;20202;-37
2024/01/12 07:04:52;;;;;;;30.30;14.97;;;;;;;;;;5054704;28;20225;-37
2024/01/12 07:07:24;;;;;;;34.10;16.47;;;;;;;;;;5064023;28;20236;-35
2024/01/12 07:10:00;;;;;;;29.30;15.33;;;;;;;;;;5063964;28;20216;-35
2024/01/12 07:12:33;;;;;;;32.87;16.33;;;;;;;;;;5056703;28;20258;-37
2024/01/12 07:15:07;;;;;;;29.57;16.13;;;;;;;;;;5054536;28;20320;-35
2024/01/12 07:17:42;;;;;;;33.77;17.13;;;;;;;;;;5064715;28;20280;-34
2024/01/12 07:20:13;;;;;;;29.90;16.80;;;;;;;;;;5059395;28;20572;-34
2024/01/12 07:22:42;;;;;;;34.07;17.53;;;;;;;;;;5054695;28;20651;-37
2024/01/12 07:25:17;;;;;;;33.33;17.27;;;;;;;;;;5063247;28;20386;-34
2024/01/12 07:27:47;;;;;;;35.27;18.27;;;;;;;;;;5059189;28;20339;-32
2024/01/12 07:30:17;;;;;;;36.33;19.47;;;;;;;;;;5066041;28;20712;-35
2024/01/12 07:32:48;;;;;;;29.50;16.60;;;;;;;;;;5062721;28;20237;-34
2024/01/12 07:35:22;;;;;;;30.07;15.63;;;;;;;;;;5058478;28;20241;-36
2024/01/12 07:37:55;;;;;;;32.30;16.90;;;;;;;;;;5058083;28;20203;-34
2024/01/12 07:40:30;;;;;;;33.00;17.13;;;;;;;;;;5060018;28;20205;-36
2024/01/12 07:43:00;;;;;;;27.73;15.53;;;;;;;;;;5065047;28;20300;-34
2024/01/12 07:45:37;;;;;;;33.13;18.07;;;;;;;;;;5057776;28;20749;-39
2024/01/12 07:48:05;;;;;;;26.80;16.67;;;;;;;;;;5074162;28;20223;-35
2024/01/12 07:50:36;;;;;;;28.97;17.67;;;;;;;;;;5058929;28;20206;-34
2024/01/12 07:53:07;;;;;;;34.00;16.53;;;;;;;;;;5054035;28;20313;-34
2024/01/12 07:55:40;;;;;;;32.70;17.03;;;;;;;;;;5062339;28;20320;-28
2024/01/12 07:58:08;;;;;;;36.17;18.77;;;;;;;;;;5056825;28;20193;-33
2024/01/12 08:00:40;;;;;;;34.17;17.97;;;;;;;;;;5061907;28;20216;-35
2024/01/12 08:03:14;;;;;;;38.77;17.20;;;;;;;;;;5063722;28;20225;-36
2024/01/12 08:05:44;;;;;;;36.70;17.77;;;;;;;;;;5062546;28;20316;-31
2024/01/12 08:08:13;;;;;;;47.33;30.93;;;;;;;;;;5061181;28;20246;-35
2024/01/12 08:10:43;;;;;;;42.63;33.67;;;;;;;;;;5053471;28;20217;-38
2024/01/12 08:13:14;;;;;;;43.87;29.23;;;;;;;;;;5059336;28;20225;-33
2024/01/12 08:15:48;;;;;;;62.80;46.07;;;;;;;;;;5056777;28;20226;-34
2024/01/12 08:18:17;;;;;;;45.03;30.37;;;;;;;;;;5061888;28;20289;-36
2024/01/12 08:20:46;;;;;;;41.40;26.73;;;;;;;;;;5058950;28;20209;-34
2024/01/12 08:23:16;;;;;;;42.83;30.93;;;;;;;;;;5072795;28;20209;-36
2024/01/12 08:25:46;;;;;;;46.80;30.50;;;;;;;;;;5063148;28;20320;-37
2024/01/12 08:28:16;;;;;;;47.93;27.83;;;;;;;;;;5052842;28;20222;-33
2024/01/12 08:31:14;;;;;;;39.03;23.33;;;;;;;;;;5065135;28;20280;-36
2024/01/12 08:33:48;;;;;;;41.47;25.63;;;;;;;;;;5061969;28;20729;-34
2024/01/12 08:36:22;;;;;;;46.30;23.77;;;;;;;;;;5061171;28;20230;-38
2024/01/12 08:38:53;;;;;;;40.10;21.60;;;;;;;;;;5063550;28;20209;-32
2024/01/12 08:41:26;;;;;;;39.23;22.40;;;;;;;;;;5073522;28;20296;-33
2024/01/12 08:43:57;;;;;;;47.23;23.27;;;;;;;;;;5069490;28;20201;-34
2024/01/12 08:46:28;;;;;;;37.07;21.80;;;;;;;;;;5069687;28;20224;-35
2024/01/12 08:49:00;;;;;;;41.33;22.37;;;;;;;;;;5060403;28;20209;-37
2024/01/12 08:51:37;;;;;;;36.97;21.77;;;;;;;;;;5054023;28;20305;-33
2024/01/12 08:54:08;;;;;;;42.10;22.63;;;;;;;;;;5053461;28;20212;-34
2024/01/12 08:56:42;;;;;;;38.93;20.53;;;;;;;;;;5061732;28;20223;-37
2024/01/12 08:59:20;;;;;;;37.67;20.47;;;;;;;;;;5055076;28;20241;-37
2024/01/12 09:01:49;;;;;;;36.23;20.77;;;;;;;;;;5053429;28;20297;-33
2024/01/12 09:04:20;;;;;;;34.13;19.97;;;;;;;;;;5062796;28;20224;-38
2024/01/12 09:06:49;;;;;;;38.43;20.50;;;;;;;;;;5063392;28;20224;-34
2024/01/12 09:09:19;;;;;;;38.77;21.83;;;;;;;;;;5064871;28;20217;-37
2024/01/12 09:12:00;;;;;;;39.80;22.60;;;;;;;;;;5066394;28;20213;-32
2024/01/12 09:14:31;;;;;;;45.67;22.27;;;;;;;;;;5056717;28;20309;-38
2024/01/12 09:17:00;;;;;;;41.80;23.37;;;;;;;;;;5061221;28;20222;-31
2024/01/12 09:19:29;;;;;;;40.33;22.10;;;;;;;;;;5055676;28;20304;-35
2024/01/12 09:21:59;;;;;;;41.03;23.33;;;;;;;;;;5068682;28;20291;-34
2024/01/12 09:24:30;;;;;;;43.57;23.87;;;;;;;;;;5053180;28;20625;-34
2024/01/12 09:27:00;;;;;;;41.23;22.30;;;;;;;;;;5054723;28;20226;-37
2024/01/12 09:29:33;;;;;;;42.67;21.93;;;;;;;;;;5039177;28;20221;-40
2024/01/12 09:32:02;;;;;;;46.37;24.07;;;;;;;;;;5056996;28;20292;-38
2024/01/12 09:37:04;;;;;;;41.30;22.67;;;;;;;;;;5030619;28;20377;-32
2024/01/12 09:39:35;;;;;;;39.97;22.03;;;;;;;;;;5032334;28;20270;-31
2024/01/12 09:42:09;;;;;;;43.37;21.80;;;;;;;;;;5028952;28;20209;-32
2024/01/12 09:44:42;;;;;;;46.07;22.40;;;;;;;;;;5028467;28;20230;-36
2024/01/12 09:47:12;;;;;;;39.37;22.73;;;;;;;;;;5031804;28;20218;-33
2024/01/12 09:49:44;;;;;;;40.77;21.90;;;;;;;;;;5024660;28;20249;-31
2024/01/12 09:52:14;;;;;;;41.23;22.60;;;;;;;;;;5032334;28;20217;-32
2024/01/12 09:54:42;;;;;;;42.77;23.30;;;;;;;;;;5031105;28;20246;-34
2024/01/12 09:57:13;;;;;;;38.77;23.27;;;;;;;;;;5027876;28;20217;-31
2024/01/12 09:59:48;;;;;;;41.23;20.50;;;;;;;;;;5019828;28;20232;-35
2024/01/12 10:02:18;;;;;;;46.83;23.90;;;;;;;;;;5028969;28;20216;-34
2024/01/12 10:04:47;;;;;;;41.90;22.67;;;;;;;;;;5023823;28;20635;-34
2024/01/12 10:07:19;;;;;;;40.17;21.40;;;;;;;;;;5031065;28;20260;-32
2024/01/12 10:09:53;;;;;;;45.37;22.53;;;;;;;;;;5030978;28;20289;-36
2024/01/12 10:12:30;;;;;;;36.50;20.80;;;;;;;;;;5029611;28;20213;-35
2024/01/12 10:15:04;;;;;;;44.03;23.17;;;;;;;;;;5024692;28;20310;-34
2024/01/12 10:17:33;;;;;;;42.90;24.20;;;;;;;;;;5031219;28;20205;-31
2024/01/12 10:20:08;;;;;;;41.50;22.87;;;;;;;;;;5021678;28;20206;-35
2024/01/12 10:22:40;;;;;;;46.83;23.53;;;;;;;;;;5027639;28;20218;-32
2024/01/12 10:25:13;;;;;;;46.20;24.27;;;;;;;;;;5033218;28;20317;-31
2024/01/12 10:27:43;;;;;;;45.70;23.70;;;;;;;;;;5098063;22;20233;-28
2024/01/12 10:30:12;;;;;;;37.13;22.53;;;;;;;;;;5015189;28;20246;-27
2024/01/12 10:32:39;;;;;;;42.77;24.97;;;;;;;;;;5013515;28;20204;-26
2024/01/12 10:35:07;;;;;;;42.00;23.83;;;;;;;;;;5005050;28;20223;-25
2024/01/12 10:37:36;;;;;;;47.47;26.87;;;;;;;;;;5013969;28;20249;-26
2024/01/12 10:40:06;;;;;;;38.17;22.83;;;;;;;;;;5011118;28;20277;-26
2024/01/12 10:42:35;;;;;;;46.57;24.43;;;;;;;;;;5006639;28;20295;-27
2024/01/12 10:45:08;;;;;;;44.57;24.97;;;;;;;;;;5009511;28;20242;-28
2024/01/12 10:47:39;;;;;;;40.93;22.10;;;;;;;;;;5014426;28;20223;-27
2024/01/12 10:50:11;;;;;;;41.83;22.43;;;;;;;;;;5001137;28;20235;-28
2024/01/12 10:52:48;;;;;;;39.93;22.37;;;;;;;;;;5012416;28;20213;-27
2024/01/12 10:55:21;;;;;;;39.50;22.87;;;;;;;;;;5007106;28;20235;-28
2024/01/12 10:57:52;;;;;;;41.73;19.23;;;;;;;;;;5005239;28;20211;-26
2024/01/12 11:00:27;;;;;;;34.13;19.90;;;;;;;;;;5007432;28;20227;-27
2024/01/12 11:02:56;;;;;;;41.83;25.27;;;;;;;;;;5014087;28;20268;-25
2024/01/12 11:05:25;;;;;;;38.07;21.47;;;;;;;;;;5011434;28;20227;-28
2024/01/12 11:07:56;;;;;;;38.70;20.93;;;;;;;;;;5014685;28;20223;-28
2024/01/12 11:10:25;;;;;;;41.83;22.30;;;;;;;;;;5014831;28;20239;-27
2024/01/12 11:12:54;;;;;;;41.40;24.23;;;;;;;;;;5008683;28;20208;-27
2024/01/12 11:15:24;;;;;;;48.63;23.17;;;;;;;;;;5014423;28;20598;-26
2024/01/12 11:17:58;;;;;;;44.10;24.30;;;;;;;;;;5007625;28;20203;-26
2024/01/12 11:20:29;;;;;;;41.87;23.93;;;;;;;;;;5000834;28;20202;-27
2024/01/12 11:22:57;;;;;;;42.83;24.40;;;;;;;;;;5005471;28;20231;-27
2024/01/12 11:25:27;;;;;;;44.03;24.20;;;;;;;;;;5002008;28;20231;-26
2024/01/12 11:27:55;;;;;;;44.33;25.03;;;;;;;;;;5008300;28;20238;-26
2024/01/12 11:30:24;;;;;;;44.10;24.17;;;;;;;;;;5007500;28;20214;-26
2024/01/12 11:33:03;;;;;;;47.40;24.77;;;;;;;;;;5005277;28;20207;-28
2024/01/12 11:35:39;;;;;;;44.13;24.63;;;;;;;;;;5000801;28;20269;-27
2024/01/12 11:38:09;;;;;;;46.10;24.60;;;;;;;;;;5012880;28;20215;-26
2024/01/12 11:40:40;;;;;;;41.93;23.07;;;;;;;;;;5012290;28;20214;-27
2024/01/12 11:43:08;;;;;;;51.67;28.93;;;;;;;;;;5007341;28;20277;-25
2024/01/12 11:45:39;;;;;;;47.60;25.97;;;;;;;;;;5003260;28;20306;-26
2024/01/12 11:48:15;;;;;;;48.47;23.70;;;;;;;;;;5013134;28;20270;-26
2024/01/12 11:50:43;;;;;;;42.17;24.10;;;;;;;;;;5007168;28;20273;-25
2024/01/12 11:53:11;;;;;;;60.87;30.63;;;;;;;;;;5005635;28;20226;-27
2024/01/12 11:55:41;;;;;;;47.70;25.53;;;;;;;;;;5011707;28;20273;-26
2024/01/12 11:58:09;;;;;;;44.03;24.53;;;;;;;;;;5009361;28;20286;-27
2024/01/12 12:00:38;;;;;;;48.37;26.27;;;;;;;;;;5000934;28;20223;-25
2024/01/12 12:03:07;;;;;;;47.30;26.00;;;;;;;;;;5012934;28;20207;-28
2024/01/12 12:05:35;;;;;;;46.67;27.53;;;;;;;;;;5004980;28;20223;-26
2024/01/12 12:08:04;;;;;;;51.70;27.37;;;;;;;;;;5013890;28;20227;-27
2024/01/12 12:10:31;;;;;;;47.70;26.40;;;;;;;;;;5014060;28;20203;-28
2024/01/12 12:13:02;;;;;;;43.20;25.30;;;;;;;;;;5007887;28;20208;-25
2024/01/12 12:15:35;;;;;;;44.70;25.73;;;;;;;;;;5014001;28;20694;-28
2024/01/12 12:18:07;;;;;;;43.07;23.67;;;;;;;;;;5013765;28;20203;-27
2024/01/12 12:20:38;;;;;;;44.93;26.87;;;;;;;;;;5004122;28;20676;-26
2024/01/12 12:23:08;;;;;;;44.50;25.50;;;;;;;;;;5012831;28;20581;-26
2024/01/12 12:25:40;;;;;;;48.60;26.70;;;;;;;;;;5013781;28;20231;-28
2024/01/12 12:28:09;;;;;;;49.00;26.77;;;;;;;;;;5009244;28;20277;-26
2024/01/12 12:30:40;;;;;;;49.57;25.63;;;;;;;;;;5013537;28;20218;-26
2024/01/12 12:33:14;;;;;;;45.57;24.63;;;;;;;;;;5013216;28;20214;-27
2024/01/12 12:35:42;;;;;;;47.97;25.70;;;;;;;;;;5012941;28;20230;-26
2024/01/12 12:38:14;;;;;;;45.70;25.67;;;;;;;;;;5013466;28;20206;-25
2024/01/12 12:40:44;;;;;;;46.17;23.27;;;;;;;;;;5013760;28;20203;-28
2024/01/12 12:43:15;;;;;;;49.57;26.87;;;;;;;;;;5009903;28;20219;-28
2024/01/12 12:48:17;;;;;;;43.60;24.90;;;;;;;;;;5049769;28;20257;-33
2024/01/12 12:50:45;;;;;;;46.83;25.57;;;;;;;;;;5042267;28;20230;-33
2024/01/12 12:53:18;;;;;;;43.27;24.80;;;;;;;;;;5043325;28;20212;-29
2024/01/12 12:55:54;;;;;;;48.77;26.10;;;;;;;;;;5036439;28;20226;-33
2024/01/12 12:58:25;;;;;;;46.70;25.83;;;;;;;;;;5023537;28;20509;-33
2024/01/12 13:00:54;;;;;;;44.90;25.90;;;;;;;;;;5031500;28;20233;-30
2024/01/12 13:03:25;;;;;;;46.20;26.37;;;;;;;;;;5030964;28;20248;-32
2024/01/12 13:05:54;;;;;;;46.07;25.13;;;;;;;;;;5029677;28;20230;-33
2024/01/12 13:08:23;;;;;;;49.33;27.17;;;;;;;;;;5032221;28;20221;-31
2024/01/12 13:10:56;;;;;;;50.90;26.30;;;;;;;;;;5032805;28;20289;-31
2024/01/12 13:13:33;;;;;;;45.80;25.70;;;;;;;;;;5031012;28;20226;-32
2024/01/12 13:18:43;;;;;;;46.63;25.20;;;;;;;;;;5028048;28;20222;-32
2024/01/12 13:21:11;;;;;;;42.33;23.40;;;;;;;;;;5025019;28;20210;-31
2024/01/12 13:23:40;;;;;;;47.70;25.07;;;;;;;;;;5032134;28;20206;-31
2024/01/12 13:26:12;;;;;;;44.93;26.67;;;;;;;;;;5032317;28;20323;-32
2024/01/12 13:28:46;;;;;;;46.37;26.93;;;;;;;;;;5023857;28;20227;-33
2024/01/12 13:31:17;;;;;;;45.87;25.87;;;;;;;;;;5032767;28;20680;-32
2024/01/12 13:33:48;;;;;;;45.50;25.80;;;;;;;;;;5028510;28;20309;-35
2024/01/12 13:41:36;;;;;;;49.03;28.13;;;;;;;;;;5022637;28;20301;-31
2024/01/12 13:44:16;;;;;;;46.07;24.60;;;;;;;;;;5023005;28;20284;-34
2024/01/12 13:51:48;;;;;;;40.93;24.47;;;;;;;;;;5027203;28;20214;-31
2024/01/12 13:54:17;;;;;;;46.17;26.80;;;;;;;;;;5032128;28;20232;-31
2024/01/12 13:56:50;;;;;;;45.97;24.63;;;;;;;;;;5032645;28;20210;-35
2024/01/12 13:59:25;;;;;;;46.27;26.87;;;;;;;;;;5023049;28;20209;-34
2024/01/12 14:01:54;;;;;;;42.17;22.77;;;;;;;;;;5029023;28;20715;-37
2024/01/12 14:04:30;;;;;;;45.93;24.10;;;;;;;;;;5025697;28;20230;-35
2024/01/12 14:12:13;;;;;;;46.13;26.40;;;;;;;;;;5060269;28;20623;-37
2024/01/12 14:14:47;;;;;;;44.90;24.80;;;;;;;;;;5056495;28;20228;-32
2024/01/12 14:17:18;;;;;;;42.27;24.10;;;;;;;;;;5048697;28;20210;-35
2024/01/12 14:19:50;;;;;;;47.30;25.33;;;;;;;;;;5032591;28;20208;-32
2024/01/12 14:22:21;;;;;;;44.37;24.70;;;;;;;;;;5048420;28;20210;-30
2024/01/12 14:35:14;;;;;;;49.20;26.97;;;;;;;;;;5060154;28;20458;-26
2024/01/12 14:37:44;;;;;;;43.17;25.33;;;;;;;;;;5059565;28;20205;-25
2024/01/12 14:40:18;;;;;;;49.40;25.10;;;;;;;;;;5071177;28;20210;-29
2024/01/12 14:42:56;;;;;;;45.23;24.90;;;;;;;;;;5064692;28;20203;-27
2024/01/12 14:50:38;;;;;;;44.03;25.20;;;;;;;;;;5058706;28;20227;-26
2024/01/12 14:53:08;;;;;;;49.90;27.00;;;;;;;;;;5056760;28;20202;-28
2024/01/12 14:55:39;;;;;;;41.80;24.47;;;;;;;;;;5060656;28;20264;-26
2024/01/12 14:58:10;;;;;;;49.93;28.17;;;;;;;;;;5058850;28;20313;-26
2024/01/12 15:00:40;;;;;;;44.67;25.57;;;;;;;;;;5065007;28;20205;-26
2024/01/12 15:03:16;;;;;;;49.40;26.40;;;;;;;;;;5062271;28;20210;-26
2024/01/12 15:05:59;;;;;;;45.23;22.40;;;;;;;;;;5056927;28;20225;-27
2024/01/12 15:11:02;;;;;;;43.87;25.77;;;;;;;;;;5031870;28;20218;-36
2024/01/12 15:13:32;;;;;;;43.17;24.50;;;;;;;;;;5026958;28;20222;-36
2024/01/12 15:18:36;;;;;;;43.00;25.00;;;;;;;;;;5041380;28;20221;-35
2024/01/12 15:21:13;;;;;;;44.23;24.87;;;;;;;;;;5038954;28;20253;-32
2024/01/12 15:29:09;;;;;;;50.10;24.70;;;;;;;;;;5044645;28;20233;-26
2024/01/12 15:31:50;;;;;;;41.00;23.20;;;;;;;;;;5035133;28;20285;-25
2024/01/12 15:34:20;;;;;;;43.20;22.77;;;;;;;;;;5046163;28;20227;-27
2024/01/12 15:36:56;;;;;;;39.53;21.77;;;;;;;;;;5029890;28;20230;-27
2024/01/12 15:39:31;;;;;;;34.53;20.20;;;;;;;;;;5034875;28;20293;-28
2024/01/12 15:42:03;;;;;;;40.93;21.77;;;;;;;;;;5026495;28;20277;-27
2024/01/12 15:47:06;;;;;;;37.20;21.50;;;;;;;;;;5044256;28;20209;-32
2024/01/12 15:49:38;;;;;;;43.43;23.00;;;;;;;;;;5034986;28;20229;-30
2024/01/12 15:52:21;;;;;;;37.80;21.47;;;;;;;;;;5047595;28;20205;-34
2024/01/12 15:54:49;;;;;;;38.03;22.13;;;;;;;;;;5046736;28;20283;-35
2024/01/12 15:57:24;;;;;;;39.77;20.47;;;;;;;;;;5016611;28;20209;-33
2024/01/12 15:59:54;;;;;;;37.07;20.57;;;;;;;;;;5014713;28;20207;-34
2024/01/12 16:02:23;;;;;;;35.30;19.83;;;;;;;;;;5022552;28;20203;-33
2024/01/12 16:04:57;;;;;;;36.77;17.57;;;;;;;;;;5024708;28;20310;-33